createdAt,value
2019-04-26T00:49:21.000Z,72.51
2019-04-26T01:42:00.000Z,74.73
2019-04-26T02:06:00.000Z,77.05
2019-04-26T02:10:48.000Z,77.52
2019-04-26T02:15:37.000Z,78.27
2019-04-26T02:20:27.000Z,77.35
2019-04-26T02:25:10.000Z,77.33
2019-04-26T02:29:58.000Z,77.37
2019-04-26T02:34:46.000Z,76.99
2019-04-26T02:39:34.000Z,76.61
2019-04-26T02:44:22.000Z,75.76
2019-04-26T02:49:10.000Z,76.53
2019-04-26T02:53:58.000Z,76.43
2019-04-26T02:58:46.000Z,77.13
2019-04-26T03:03:36.000Z,78.53
2019-04-26T03:08:21.000Z,79.58
2019-04-26T03:13:10.000Z,80.57
2019-04-26T03:17:58.000Z,80.93
2019-04-26T03:22:46.000Z,81.11
2019-04-26T03:27:34.000Z,79.98
2019-04-26T03:32:22.000Z,80.72
2019-04-26T03:37:11.000Z,81.27
2019-04-26T03:41:58.000Z,81.81
2019-04-26T03:46:46.000Z,81.82
2019-04-26T03:51:33.000Z,81.37
2019-04-26T03:56:21.000Z,80.79
2019-04-26T04:01:09.000Z,81.35
2019-04-26T04:05:57.000Z,81.83
2019-04-26T04:10:46.000Z,81.92
2019-04-26T04:15:33.000Z,82.28
2019-04-26T04:20:21.000Z,82.49
2019-04-26T04:25:09.000Z,82.78
2019-04-26T04:29:57.000Z,82.53
2019-04-26T04:34:47.000Z,82.75
2019-04-26T04:39:34.000Z,83.61
2019-04-26T04:44:24.000Z,83.64
2019-04-26T04:49:11.000Z,82.58
2019-04-26T04:54:00.000Z,81.41
2019-04-26T04:58:49.000Z,80.32
2019-04-26T05:03:35.000Z,79.63
2019-04-26T05:08:23.000Z,79.45
2019-04-26T05:13:12.000Z,78.92
2019-04-26T05:18:00.000Z,78.37
2019-04-26T05:22:49.000Z,78.64
2019-04-26T05:27:36.000Z,78.91
2019-04-26T05:32:25.000Z,80.27
2019-04-26T05:37:14.000Z,81.47
2019-04-26T05:42:03.000Z,82.79
2019-04-26T05:46:53.000Z,82.86
2019-04-26T05:51:42.000Z,82.25
2019-04-26T05:56:32.000Z,80.60
2019-04-26T06:01:22.000Z,76.74
2019-04-26T06:06:10.000Z,73.70
2019-04-26T06:10:58.000Z,68.23
2019-04-26T06:15:47.000Z,68.60
2019-04-26T06:20:35.000Z,67.23
2019-04-26T06:25:26.000Z,66.18
2019-04-26T06:30:13.000Z,64.49
2019-04-26T06:35:02.000Z,62.29
2019-04-26T06:39:50.000Z,60.73
2019-04-26T06:44:39.000Z,59.93
2019-04-26T06:49:28.000Z,58.77
2019-04-26T06:54:17.000Z,57.31
2019-04-26T06:59:06.000Z,55.29
2019-04-26T07:03:54.000Z,55.37
2019-04-26T07:08:44.000Z,55.28
2019-04-26T07:13:32.000Z,54.10
2019-04-26T07:18:21.000Z,53.04
2019-04-26T07:23:09.000Z,51.22
2019-04-26T07:27:56.000Z,51.57
2019-04-26T07:32:45.000Z,51.50
2019-04-26T07:37:32.000Z,52.12
2019-04-26T07:42:21.000Z,52.27
2019-04-26T07:47:07.000Z,52.81
2019-04-26T07:51:57.000Z,54.33
2019-04-26T07:56:45.000Z,53.58
2019-04-26T08:01:36.000Z,52.35
2019-04-26T10:55:46.000Z,52.69
2019-04-26T11:00:25.000Z,53.66
2019-04-26T11:05:12.000Z,53.97
2019-04-26T11:10:01.000Z,54.28
2019-04-26T11:14:49.000Z,55.38
2019-04-26T11:19:37.000Z,55.18
2019-04-26T11:24:25.000Z,54.73
2019-04-26T11:29:14.000Z,53.95
2019-04-26T11:34:01.000Z,54.32
2019-04-26T11:38:48.000Z,56.09
2019-04-26T11:43:36.000Z,57.40
2019-04-26T11:48:24.000Z,57.70
2019-04-26T11:53:12.000Z,58.55
2019-04-26T11:58:00.000Z,59.61
2019-04-26T12:02:47.000Z,60.29
2019-04-26T12:07:35.000Z,60.52
2019-04-26T12:12:24.000Z,60.32
2019-04-26T12:17:12.000Z,60.29
2019-04-26T12:22:00.000Z,61.11
2019-04-26T12:26:48.000Z,61.36
2019-04-26T12:31:35.000Z,62.10
2019-04-26T12:36:23.000Z,63.05
2019-04-26T12:41:11.000Z,64.25
2019-04-26T12:45:59.000Z,64.93
2019-04-26T12:50:47.000Z,65.62
2019-04-26T12:55:36.000Z,66.62
2019-04-26T13:00:23.000Z,67.30
2019-04-26T13:05:10.000Z,67.40
2019-04-26T13:09:58.000Z,67.49
2019-04-26T13:14:46.000Z,68.11
2019-04-26T13:19:35.000Z,68.76
2019-04-26T13:24:23.000Z,69.17
2019-04-26T13:29:11.000Z,69.32
2019-04-26T13:33:58.000Z,69.84
2019-04-26T13:38:48.000Z,70.15
2019-04-26T13:48:22.000Z,70.45
2019-04-26T13:53:11.000Z,71.19
2019-04-26T13:57:58.000Z,72.11
2019-04-26T14:02:46.000Z,72.39
2019-04-26T14:07:34.000Z,72.53
2019-04-26T14:12:22.000Z,73.33
2019-04-26T14:17:10.000Z,73.71
2019-04-26T14:21:58.000Z,73.74
2019-04-26T14:26:47.000Z,73.40
2019-04-26T14:31:33.000Z,73.12
2019-04-26T14:36:21.000Z,73.68
2019-04-26T14:41:09.000Z,73.82
2019-04-26T14:45:57.000Z,74.20
2019-04-26T14:50:46.000Z,74.25
2019-04-26T14:55:32.000Z,74.30
2019-04-26T15:00:22.000Z,74.23
2019-04-26T15:05:09.000Z,74.71
2019-04-26T15:09:57.000Z,74.53
2019-04-26T15:14:46.000Z,74.59
2019-04-26T15:19:34.000Z,74.92
2019-04-26T15:24:21.000Z,75.25
2019-04-26T15:29:09.000Z,76.11
2019-04-26T15:33:57.000Z,77.03
2019-04-26T15:38:45.000Z,77.40
2019-04-26T15:43:32.000Z,78.05
2019-04-26T15:48:20.000Z,78.66
2019-04-26T15:53:08.000Z,78.68
2019-04-26T15:57:56.000Z,78.63
2019-04-26T16:02:44.000Z,78.57
2019-04-26T16:07:32.000Z,78.67
2019-04-26T16:12:20.000Z,79.21
2019-04-26T16:17:08.000Z,80.12
2019-04-26T16:21:56.000Z,80.99
2019-04-26T16:26:44.000Z,81.25
2019-04-26T16:31:31.000Z,82.25
2019-04-26T16:36:19.000Z,83.27
2019-04-26T16:41:07.000Z,84.26
2019-04-26T16:45:54.000Z,85.17
2019-04-26T16:50:42.000Z,85.83
2019-04-26T16:55:30.000Z,86.80
2019-04-26T17:00:18.000Z,86.95
2019-04-26T17:05:06.000Z,87.65
2019-04-26T17:09:53.000Z,88.41
2019-04-26T17:14:41.000Z,88.78
2019-04-26T17:19:29.000Z,89.06
2019-04-26T17:24:18.000Z,89.17
2019-04-26T17:29:05.000Z,89.28
2019-04-26T17:33:53.000Z,89.44
2019-04-26T17:38:41.000Z,89.93
2019-04-26T17:43:29.000Z,90.33
